createdAt,value
2023-05-15T00:07:26.856Z,5.40
2023-05-15T00:17:33.488Z,5.80
2023-05-15T00:27:40.033Z,5.30
2023-05-15T00:37:47.138Z,5.60
2023-05-15T00:47:54.958Z,5.20
2023-05-15T00:58:02.713Z,4.40
2023-05-15T01:08:36.527Z,5.00
2023-05-15T01:18:43.125Z,5.40
2023-05-15T01:29:25.111Z,5.50
2023-05-15T01:39:34.500Z,5.90
2023-05-15T01:49:41.007Z,5.40
2023-05-15T01:59:47.595Z,5.80
2023-05-15T02:09:54.372Z,5.30
2023-05-15T02:19:59.879Z,7.55
2023-05-15T02:30:28.080Z,6.70
2023-05-15T02:40:35.863Z,7.00
2023-05-15T02:50:42.776Z,6.30
2023-05-15T03:00:49.415Z,6.80
2023-05-15T03:10:56.165Z,7.10
2023-05-15T03:21:02.634Z,6.70
2023-05-15T03:31:12.289Z,6.60
2023-05-15T03:41:18.804Z,6.90
2023-05-15T03:51:25.675Z,6.70
2023-05-15T04:01:32.416Z,9.10
2023-05-15T04:11:39.004Z,9.90
2023-05-15T04:21:45.473Z,10.00
2023-05-15T04:31:52.137Z,8.40
2023-05-15T04:41:58.633Z,7.60
2023-05-15T04:52:05.586Z,7.20
2023-05-15T05:02:12.123Z,7.50
2023-05-15T05:12:18.688Z,6.90
2023-05-15T05:22:25.349Z,8.30
2023-05-15T05:32:31.833Z,7.50
2023-05-15T05:42:38.314Z,7.90
2023-05-15T05:52:44.864Z,8.10
2023-05-15T06:02:54.342Z,6.70
2023-05-15T06:13:00.866Z,6.90
2023-05-15T06:23:07.315Z,7.10
2023-05-15T06:33:13.837Z,7.10
2023-05-15T06:43:20.349Z,7.20
2023-05-15T06:53:26.999Z,9.10
2023-05-15T07:03:33.525Z,8.30
2023-05-15T07:13:40.316Z,9.80
2023-05-15T07:23:46.928Z,14.50
2023-05-15T07:33:53.446Z,17.40
2023-05-15T07:43:59.896Z,17.80
2023-05-15T07:54:07.082Z,17.20
2023-05-15T08:04:13.682Z,15.40
2023-05-15T08:14:20.233Z,13.40
2023-05-15T08:24:26.803Z,11.20
2023-05-15T08:34:33.315Z,8.50
2023-05-15T08:44:40.771Z,7.10
2023-05-15T08:54:49.243Z,5.60
2023-05-15T09:04:55.767Z,4.10
2023-05-15T09:15:15.153Z,3.90
2023-05-15T09:25:41.853Z,4.30
2023-05-15T09:35:48.327Z,5.20
2023-05-15T09:45:54.943Z,5.30
2023-05-15T09:56:01.532Z,5.60
2023-05-15T10:06:08.884Z,6.70
2023-05-15T10:16:15.852Z,7.00
2023-05-15T10:26:25.646Z,7.50
2023-05-15T10:36:33.306Z,7.50
2023-05-15T10:46:39.967Z,9.10
2023-05-15T10:56:46.515Z,9.30
2023-05-15T11:07:13.592Z,10.90
2023-05-15T11:17:20.224Z,9.00
2023-05-15T11:27:31.986Z,8.30
2023-05-15T11:37:49.764Z,7.80
2023-05-15T11:47:56.605Z,8.10
2023-05-15T11:58:03.539Z,8.30
2023-05-15T12:08:14.431Z,7.30
2023-05-15T12:18:21.124Z,6.90
2023-05-15T12:29:47.269Z,6.00
2023-05-15T12:39:57.615Z,5.80
2023-05-15T12:50:05.383Z,5.60
2023-05-15T13:00:13.038Z,4.70
2023-05-15T13:10:24.384Z,5.10
2023-05-15T13:20:35.025Z,3.90
2023-05-15T13:30:44.961Z,3.90
2023-05-15T13:40:51.518Z,4.00
2023-05-15T13:50:58.018Z,4.10
2023-05-15T14:01:07.290Z,3.70
2023-05-15T14:11:13.941Z,3.50
2023-05-15T14:21:20.472Z,3.60
2023-05-15T14:31:27.348Z,3.10
2023-05-15T14:41:33.907Z,3.80
2023-05-15T14:51:40.407Z,3.20
2023-05-15T15:01:47.985Z,3.70
2023-05-15T15:11:54.529Z,4.80
2023-05-15T15:22:01.135Z,3.50
2023-05-15T15:32:08.051Z,2.80
2023-05-15T15:42:14.841Z,4.60
2023-05-15T15:52:21.700Z,6.40
2023-05-15T16:02:29.602Z,2.20
2023-05-15T16:12:36.132Z,2.40
2023-05-15T16:22:43.126Z,2.90
2023-05-15T16:32:49.802Z,2.70
2023-05-15T16:42:56.640Z,2.80
2023-05-15T16:53:03.388Z,2.80
2023-05-15T17:03:10.073Z,2.90
2023-05-15T17:13:17.263Z,2.80
2023-05-15T17:23:23.789Z,2.90
2023-05-15T17:33:30.372Z,2.70
2023-05-15T17:43:36.884Z,4.30
2023-05-15T17:53:43.428Z,3.50
2023-05-15T18:03:50.078Z,3.60
2023-05-15T18:13:56.700Z,4.10
2023-05-15T18:24:03.199Z,4.70
2023-05-15T18:34:09.730Z,4.20
2023-05-15T18:44:16.345Z,4.10
2023-05-15T18:54:22.985Z,4.70
2023-05-15T19:04:29.617Z,4.30
2023-05-15T19:14:36.141Z,4.00
2023-05-15T19:24:42.667Z,6.00
2023-05-15T19:34:50.246Z,7.00
2023-05-15T19:44:56.793Z,6.60
2023-05-15T19:55:03.249Z,6.90
2023-05-15T20:05:10.295Z,7.20
2023-05-15T20:15:17.646Z,6.50
2023-05-15T20:25:24.494Z,7.00
2023-05-15T20:35:31.268Z,5.90
2023-05-15T20:45:37.948Z,6.70
2023-05-15T20:55:44.470Z,7.80
2023-05-15T21:05:56.019Z,6.90
2023-05-15T21:16:03.347Z,7.20
2023-05-15T21:26:09.858Z,7.30
2023-05-15T21:36:16.324Z,6.90
2023-05-15T21:46:22.921Z,6.30
2023-05-15T21:56:29.445Z,7.20
2023-05-15T22:06:35.972Z,6.70
2023-05-15T22:16:42.645Z,5.90
2023-05-15T22:26:49.235Z,5.80
2023-05-15T22:36:56.412Z,6.60
2023-05-15T22:47:03.051Z,7.60
2023-05-15T22:57:10.748Z,8.90
2023-05-15T23:07:19.296Z,9.00
2023-05-15T23:17:26.621Z,9.60
2023-05-15T23:27:33.865Z,9.00
2023-05-15T23:37:40.424Z,10.00
2023-05-15T23:47:47.993Z,9.90
2023-05-15T23:57:54.527Z,11.00
